createdAt,value
2023-04-22T00:00:05.000Z,97842
2023-04-22T00:02:11.000Z,97842
2023-04-22T00:03:37.000Z,97836
2023-04-22T00:05:44.000Z,97836
2023-04-22T00:07:10.000Z,97837
2023-04-22T00:09:17.000Z,97839
2023-04-22T00:10:43.000Z,97833
2023-04-22T00:12:49.000Z,97832
2023-04-22T00:14:16.000Z,97830
2023-04-22T00:16:22.000Z,97827
2023-04-22T00:17:49.000Z,97825
2023-04-22T00:19:55.000Z,97819
2023-04-22T00:21:22.000Z,97815
2023-04-22T00:23:28.000Z,97816
2023-04-22T00:24:54.000Z,97815
2023-04-22T00:27:00.000Z,97814
2023-04-22T00:28:27.000Z,97815
2023-04-22T00:30:33.000Z,97814
2023-04-22T00:33:24.000Z,97818
2023-04-22T00:34:51.000Z,97819
2023-04-22T00:36:57.000Z,97826
2023-04-22T00:38:23.000Z,97823
2023-04-22T00:40:29.000Z,97828
2023-04-22T00:41:56.000Z,97824
2023-04-22T00:44:02.000Z,97825
2023-04-22T00:45:28.000Z,97824
2023-04-22T00:47:34.000Z,97825
2023-04-22T00:49:01.000Z,97825
2023-04-22T00:51:07.000Z,97826
2023-04-22T00:52:34.000Z,97824
2023-04-22T00:54:40.000Z,97822
2023-04-22T00:56:06.000Z,97822
2023-04-22T00:58:12.000Z,97826
2023-04-22T00:59:39.000Z,97823
2023-04-22T01:01:46.000Z,97825
2023-04-22T01:03:12.000Z,97826
2023-04-22T01:05:19.000Z,97825
2023-04-22T01:06:45.000Z,97829
2023-04-22T01:08:51.000Z,97828
2023-04-22T01:11:43.000Z,97825
2023-04-22T01:13:09.000Z,97826
2023-04-22T01:15:15.000Z,97827
2023-04-22T01:16:42.000Z,97829
2023-04-22T01:18:48.000Z,97830
2023-04-22T01:20:14.000Z,97834
2023-04-22T01:22:20.000Z,97832
2023-04-22T01:23:47.000Z,97825
2023-04-22T01:25:53.000Z,97829
2023-04-22T01:27:20.000Z,97830
2023-04-22T01:29:26.000Z,97829
2023-04-22T01:30:52.000Z,97833
2023-04-22T01:32:58.000Z,97832
2023-04-22T01:34:25.000Z,97831
2023-04-22T01:36:31.000Z,97833
2023-04-22T01:37:58.000Z,97835
2023-04-22T01:40:04.000Z,97834
2023-04-22T01:41:30.000Z,97832
2023-04-22T01:43:36.000Z,97836
2023-04-22T01:45:03.000Z,97834
2023-04-22T01:47:09.000Z,97834
2023-04-22T01:50:00.000Z,97832
2023-04-22T01:51:27.000Z,97835
2023-04-22T01:53:33.000Z,97833
2023-04-22T01:54:59.000Z,97834
2023-04-22T01:57:05.000Z,97830
2023-04-22T01:58:32.000Z,97833
2023-04-22T02:00:38.000Z,97829
2023-04-22T02:02:04.000Z,97826
2023-04-22T02:04:11.000Z,97829
2023-04-22T02:05:37.000Z,97832
2023-04-22T02:07:43.000Z,97833
2023-04-22T02:09:10.000Z,97837
2023-04-22T02:11:16.000Z,97836
2023-04-22T02:12:42.000Z,97838
2023-04-22T02:14:48.000Z,97831
2023-04-22T02:16:15.000Z,97828
2023-04-22T02:18:21.000Z,97830
2023-04-22T02:19:48.000Z,97833
2023-04-22T02:21:54.000Z,97833
2023-04-22T02:23:20.000Z,97833
2023-04-22T02:25:27.000Z,97834
2023-04-22T02:28:18.000Z,97837
2023-04-22T02:29:44.000Z,97835
2023-04-22T02:31:50.000Z,97833
2023-04-22T02:33:17.000Z,97831
2023-04-22T02:35:23.000Z,97841
2023-04-22T02:36:50.000Z,97843
2023-04-22T02:38:56.000Z,97842
2023-04-22T02:40:22.000Z,97844
2023-04-22T02:42:29.000Z,97837
2023-04-22T02:43:55.000Z,97839
2023-04-22T02:46:01.000Z,97838
2023-04-22T02:47:28.000Z,97837
2023-04-22T02:49:34.000Z,97838
2023-04-22T02:51:00.000Z,97839
2023-04-22T02:53:06.000Z,97842
2023-04-22T02:54:33.000Z,97844
2023-04-22T02:56:39.000Z,97842
2023-04-22T02:58:06.000Z,97840
2023-04-22T03:00:12.000Z,97839
2023-04-22T03:01:38.000Z,97843
2023-04-22T03:03:44.000Z,97842
2023-04-22T03:06:36.000Z,97841
2023-04-22T03:08:02.000Z,97841
2023-04-22T03:10:08.000Z,97841
2023-04-22T03:11:35.000Z,97840
2023-04-22T03:13:41.000Z,97841
2023-04-22T03:15:08.000Z,97838
2023-04-22T03:17:14.000Z,97834
2023-04-22T03:18:40.000Z,97837
2023-04-22T03:20:46.000Z,97838
2023-04-22T03:22:13.000Z,97839
2023-04-22T03:24:19.000Z,97839
2023-04-22T03:25:45.000Z,97833
2023-04-22T03:27:51.000Z,97832
2023-04-22T03:29:18.000Z,97832
2023-04-22T03:31:24.000Z,97833
2023-04-22T03:32:50.000Z,97832
2023-04-22T03:34:57.000Z,97834
2023-04-22T03:36:23.000Z,97829
2023-04-22T03:38:29.000Z,97834
2023-04-22T03:39:56.000Z,97829
2023-04-22T03:42:02.000Z,97826
2023-04-22T03:44:53.000Z,97830
2023-04-22T03:46:20.000Z,97831
2023-04-22T03:48:26.000Z,97824
2023-04-22T03:49:52.000Z,97827
2023-04-22T03:51:58.000Z,97830
2023-04-22T03:53:25.000Z,97832
2023-04-22T03:55:31.000Z,97833
2023-04-22T03:56:58.000Z,97831
2023-04-22T03:59:04.000Z,97829
2023-04-22T04:00:30.000Z,97827
2023-04-22T04:02:36.000Z,97824
2023-04-22T04:04:03.000Z,97828
2023-04-22T04:06:10.000Z,97829
2023-04-22T04:07:36.000Z,97827
2023-04-22T04:09:42.000Z,97825
2023-04-22T04:11:09.000Z,97821
2023-04-22T04:13:15.000Z,97825
2023-04-22T04:14:42.000Z,97824
2023-04-22T04:16:48.000Z,97827
2023-04-22T04:18:14.000Z,97827
2023-04-22T04:20:20.000Z,97827
2023-04-22T04:23:11.000Z,97826
2023-04-22T04:24:38.000Z,97831
2023-04-22T04:26:44.000Z,97831
2023-04-22T04:28:10.000Z,97830
2023-04-22T04:30:16.000Z,97833
2023-04-22T04:31:43.000Z,97836
2023-04-22T04:33:49.000Z,97832
2023-04-22T04:35:16.000Z,97830
2023-04-22T04:37:22.000Z,97827
2023-04-22T04:38:48.000Z,97828
2023-04-22T04:40:54.000Z,97828
2023-04-22T04:42:21.000Z,97826
2023-04-22T04:44:27.000Z,97830
2023-04-22T04:45:54.000Z,97835
2023-04-22T04:48:00.000Z,97831
2023-04-22T04:49:26.000Z,97832
2023-04-22T04:51:33.000Z,97835
2023-04-22T04:52:59.000Z,97834
2023-04-22T04:55:05.000Z,97837
2023-04-22T04:56:32.000Z,97834
2023-04-22T04:58:38.000Z,97834
2023-04-22T05:01:29.000Z,97841
2023-04-22T05:02:55.000Z,97839
2023-04-22T05:05:02.000Z,97843
2023-04-22T05:06:29.000Z,97841
2023-04-22T05:08:35.000Z,97839
2023-04-22T05:10:01.000Z,97844
2023-04-22T05:12:07.000Z,97846
2023-04-22T05:13:34.000Z,97846
2023-04-22T05:15:40.000Z,97845
2023-04-22T05:17:07.000Z,97845
2023-04-22T05:19:13.000Z,97842
2023-04-22T05:20:39.000Z,97838
2023-04-22T05:22:45.000Z,97834
2023-04-22T05:24:12.000Z,97838
2023-04-22T05:26:18.000Z,97838
2023-04-22T05:27:44.000Z,97836
2023-04-22T05:29:51.000Z,97838
2023-04-22T05:31:17.000Z,97836
2023-04-22T05:33:23.000Z,97838
2023-04-22T05:34:50.000Z,97835
2023-04-22T05:36:56.000Z,97833
2023-04-22T05:39:47.000Z,97830
2023-04-22T05:41:14.000Z,97829
2023-04-22T05:43:20.000Z,97830
2023-04-22T05:44:46.000Z,97830
2023-04-22T05:46:53.000Z,97828
2023-04-22T05:48:19.000Z,97827
2023-04-22T05:50:25.000Z,97825
2023-04-22T05:51:52.000Z,97824
2023-04-22T05:53:58.000Z,97821
2023-04-22T05:55:24.000Z,97819
2023-04-22T05:57:31.000Z,97822
2023-04-22T05:58:57.000Z,97825
2023-04-22T06:01:03.000Z,97825
2023-04-22T06:02:30.000Z,97820
2023-04-22T06:04:36.000Z,97822
2023-04-22T06:06:04.000Z,97819
2023-04-22T06:08:11.000Z,97822
2023-04-22T06:09:37.000Z,97818
2023-04-22T06:11:44.000Z,97818
2023-04-22T06:13:10.000Z,97818
2023-04-22T06:15:16.000Z,97814
2023-04-22T06:18:08.000Z,97812
2023-04-22T06:19:34.000Z,97807
2023-04-22T06:21:40.000Z,97804
2023-04-22T06:23:07.000Z,97803
2023-04-22T06:25:13.000Z,97802
2023-04-22T06:26:39.000Z,97804
2023-04-22T06:28:45.000Z,97807
2023-04-22T06:30:12.000Z,97809
2023-04-22T06:32:18.000Z,97807
2023-04-22T06:33:45.000Z,97809
2023-04-22T06:35:51.000Z,97809
2023-04-22T06:37:17.000Z,97815
2023-04-22T06:39:23.000Z,97817
2023-04-22T06:40:50.000Z,97820
2023-04-22T06:42:56.000Z,97817
2023-04-22T06:44:23.000Z,97818
2023-04-22T06:46:29.000Z,97817
2023-04-22T06:47:55.000Z,97815
2023-04-22T06:50:01.000Z,97821
2023-04-22T06:51:28.000Z,97814
2023-04-22T06:53:34.000Z,97816
2023-04-22T06:56:25.000Z,97818
2023-04-22T06:57:52.000Z,97818
2023-04-22T06:59:58.000Z,97819
2023-04-22T07:01:24.000Z,97821
2023-04-22T07:03:31.000Z,97823
2023-04-22T07:04:57.000Z,97824
2023-04-22T07:07:03.000Z,97824
2023-04-22T07:08:30.000Z,97822
2023-04-22T07:10:36.000Z,97828
2023-04-22T07:12:03.000Z,97827
2023-04-22T07:14:09.000Z,97826
2023-04-22T07:15:35.000Z,97829
2023-04-22T07:17:41.000Z,97829
2023-04-22T07:19:08.000Z,97831
2023-04-22T07:21:14.000Z,97831
2023-04-22T07:22:41.000Z,97834
2023-04-22T07:24:47.000Z,97829
2023-04-22T07:26:13.000Z,97828
2023-04-22T07:28:19.000Z,97829
2023-04-22T07:29:46.000Z,97825
2023-04-22T07:31:52.000Z,97827
2023-04-22T07:34:44.000Z,97824
2023-04-22T07:36:10.000Z,97821
2023-04-22T07:38:16.000Z,97815
2023-04-22T07:39:43.000Z,97810
2023-04-22T07:41:49.000Z,97807
2023-04-22T07:43:15.000Z,97802
2023-04-22T07:45:21.000Z,97801
2023-04-22T07:46:48.000Z,97803
2023-04-22T07:48:54.000Z,97806
2023-04-22T07:50:21.000Z,97801
2023-04-22T07:52:27.000Z,97802
2023-04-22T07:53:53.000Z,97802
2023-04-22T07:56:00.000Z,97803
2023-04-22T07:57:28.000Z,97800
2023-04-22T07:59:34.000Z,97797
2023-04-22T08:01:01.000Z,97794
2023-04-22T08:03:07.000Z,97795
2023-04-22T08:04:34.000Z,97787
2023-04-22T08:06:40.000Z,97782
2023-04-22T08:08:07.000Z,97785
2023-04-22T08:10:13.000Z,97785
2023-04-22T08:13:04.000Z,97785
2023-04-22T08:14:31.000Z,97791
2023-04-22T08:16:37.000Z,97793
2023-04-22T08:18:03.000Z,97789
2023-04-22T08:20:10.000Z,97796
2023-04-22T08:21:36.000Z,97789
2023-04-22T08:23:42.000Z,97789
2023-04-22T08:25:09.000Z,97785
2023-04-22T08:27:15.000Z,97785
2023-04-22T08:28:41.000Z,97784
2023-04-22T08:30:47.000Z,97782
2023-04-22T08:32:14.000Z,97787
2023-04-22T08:34:20.000Z,97786
2023-04-22T08:35:46.000Z,97787
2023-04-22T08:37:53.000Z,97788
2023-04-22T08:39:19.000Z,97786
2023-04-22T08:41:25.000Z,97791
2023-04-22T08:42:52.000Z,97794
2023-04-22T08:44:58.000Z,97793
2023-04-22T08:46:24.000Z,97792
2023-04-22T08:48:31.000Z,97788
2023-04-22T08:51:22.000Z,97783
2023-04-22T08:52:49.000Z,97781
2023-04-22T08:54:55.000Z,97783
2023-04-22T08:56:21.000Z,97783
2023-04-22T08:58:28.000Z,97784
2023-04-22T08:59:54.000Z,97783
2023-04-22T09:02:00.000Z,97782
2023-04-22T09:03:27.000Z,97784
2023-04-22T09:05:33.000Z,97782
2023-04-22T09:07:00.000Z,97779
2023-04-22T09:09:06.000Z,97780
2023-04-22T09:10:32.000Z,97778
2023-04-22T09:12:40.000Z,97774
2023-04-22T09:14:06.000Z,97774
2023-04-22T09:16:12.000Z,97774
2023-04-22T09:17:39.000Z,97774
2023-04-22T09:19:45.000Z,97771
2023-04-22T09:21:12.000Z,97776
2023-04-22T09:23:18.000Z,97770
2023-04-22T09:24:44.000Z,97777
2023-04-22T09:26:50.000Z,97772
2023-04-22T09:29:42.000Z,97775
2023-04-22T09:31:08.000Z,97771
2023-04-22T09:33:14.000Z,97771
2023-04-22T09:34:41.000Z,97769
2023-04-22T09:36:47.000Z,97771
2023-04-22T09:38:13.000Z,97768
2023-04-22T09:40:20.000Z,97768
2023-04-22T09:41:46.000Z,97769
2023-04-22T09:43:52.000Z,97768
2023-04-22T09:45:19.000Z,97769
2023-04-22T09:47:25.000Z,97764
2023-04-22T09:48:51.000Z,97759
2023-04-22T09:50:57.000Z,97760
2023-04-22T09:52:24.000Z,97760
2023-04-22T09:54:30.000Z,97758
2023-04-22T09:55:57.000Z,97757
2023-04-22T09:58:03.000Z,97759
2023-04-22T09:59:29.000Z,97761
2023-04-22T10:01:35.000Z,97756
2023-04-22T10:03:02.000Z,97753
2023-04-22T10:05:09.000Z,97753
2023-04-22T10:08:00.000Z,97750
2023-04-22T10:09:27.000Z,97750
2023-04-22T10:11:33.000Z,97746
2023-04-22T10:12:59.000Z,97744
2023-04-22T10:15:06.000Z,97738
2023-04-22T10:16:32.000Z,97741
2023-04-22T10:18:38.000Z,97740
2023-04-22T10:20:05.000Z,97742
2023-04-22T10:22:11.000Z,97741
2023-04-22T10:23:37.000Z,97739
2023-04-22T10:25:44.000Z,97744
2023-04-22T10:27:10.000Z,97742
2023-04-22T10:29:16.000Z,97738
2023-04-22T10:30:43.000Z,97742
2023-04-22T10:32:49.000Z,97740
2023-04-22T10:34:16.000Z,97736
2023-04-22T10:36:22.000Z,97732
2023-04-22T10:37:48.000Z,97731
2023-04-22T10:39:54.000Z,97733
2023-04-22T10:41:21.000Z,97732
2023-04-22T10:43:27.000Z,97727
2023-04-22T10:46:18.000Z,97724
2023-04-22T10:47:45.000Z,97725
2023-04-22T10:49:51.000Z,97729
2023-04-22T10:51:18.000Z,97721
2023-04-22T10:53:24.000Z,97717
2023-04-22T10:54:50.000Z,97721
2023-04-22T10:56:56.000Z,97718
2023-04-22T10:58:24.000Z,97719
2023-04-22T11:00:30.000Z,97724
2023-04-22T11:02:18.000Z,97723
2023-04-22T11:04:24.000Z,97718
2023-04-22T11:05:51.000Z,97716
2023-04-22T11:07:57.000Z,97716
2023-04-22T11:09:23.000Z,97717
2023-04-22T11:11:30.000Z,97715
2023-04-22T11:12:56.000Z,97721
2023-04-22T11:15:02.000Z,97714
2023-04-22T11:16:29.000Z,97712
2023-04-22T11:18:35.000Z,97709
2023-04-22T11:20:02.000Z,97707
2023-04-22T11:22:08.000Z,97712
2023-04-22T11:24:59.000Z,97712
2023-04-22T11:26:26.000Z,97710
2023-04-22T11:28:32.000Z,97711
2023-04-22T11:29:58.000Z,97716
2023-04-22T11:32:04.000Z,97712
2023-04-22T11:33:31.000Z,97715
2023-04-22T11:35:37.000Z,97711
2023-04-22T11:37:04.000Z,97714
2023-04-22T11:39:10.000Z,97710
2023-04-22T11:40:36.000Z,97715
2023-04-22T11:42:46.000Z,97717
2023-04-22T11:44:12.000Z,97712
2023-04-22T11:46:18.000Z,97712
2023-04-22T11:47:48.000Z,97708
2023-04-22T11:49:54.000Z,97708
2023-04-22T11:51:20.000Z,97705
2023-04-22T11:53:27.000Z,97705
2023-04-22T11:54:53.000Z,97710
2023-04-22T11:56:59.000Z,97701
2023-04-22T11:58:26.000Z,97705
2023-04-22T12:00:32.000Z,97710
2023-04-22T12:03:23.000Z,97703
2023-04-22T12:04:51.000Z,97703
2023-04-22T12:06:57.000Z,97694
2023-04-22T12:08:23.000Z,97700
2023-04-22T12:10:30.000Z,97696
2023-04-22T12:11:56.000Z,97701
2023-04-22T12:14:02.000Z,97693
2023-04-22T12:15:29.000Z,97690
2023-04-22T12:17:35.000Z,97689
2023-04-22T12:19:01.000Z,97689
2023-04-22T12:21:07.000Z,97685
2023-04-22T12:22:34.000Z,97683
2023-04-22T12:24:40.000Z,97684
2023-04-22T12:26:07.000Z,97688
2023-04-22T12:28:13.000Z,97683
2023-04-22T12:29:39.000Z,97685
2023-04-22T12:31:46.000Z,97683
2023-04-22T12:33:13.000Z,97681
2023-04-22T12:35:19.000Z,97684
2023-04-22T12:36:45.000Z,97688
2023-04-22T12:38:52.000Z,97682
2023-04-22T12:41:42.000Z,97684
2023-04-22T12:43:09.000Z,97683
2023-04-22T12:45:15.000Z,97678
2023-04-22T12:46:42.000Z,97679
2023-04-22T12:48:48.000Z,97676
2023-04-22T12:50:14.000Z,97671
2023-04-22T12:52:20.000Z,97666
2023-04-22T12:53:47.000Z,97666
2023-04-22T12:55:53.000Z,97663
2023-04-22T12:57:20.000Z,97667
2023-04-22T12:59:26.000Z,97653
2023-04-22T13:00:52.000Z,97654
2023-04-22T13:02:59.000Z,97640
2023-04-22T13:04:25.000Z,97656
2023-04-22T13:06:32.000Z,97659
2023-04-22T13:07:58.000Z,97649
2023-04-22T13:10:13.000Z,97653
2023-04-22T13:11:39.000Z,97644
2023-04-22T13:13:46.000Z,97646
2023-04-22T13:15:12.000Z,97646
2023-04-22T13:17:18.000Z,97649
2023-04-22T13:20:09.000Z,97648
2023-04-22T13:21:36.000Z,97650
2023-04-22T13:23:42.000Z,97651
2023-04-22T13:25:09.000Z,97650
2023-04-22T13:27:15.000Z,97643
2023-04-22T13:28:41.000Z,97640
2023-04-22T13:30:48.000Z,97640
2023-04-22T13:32:14.000Z,97642
2023-04-22T13:34:20.000Z,97639
2023-04-22T13:35:47.000Z,97635
2023-04-22T13:37:53.000Z,97636
2023-04-22T13:39:20.000Z,97632
2023-04-22T13:41:26.000Z,97637
2023-04-22T13:42:52.000Z,97630
2023-04-22T13:44:58.000Z,97628
2023-04-22T13:46:25.000Z,97627
2023-04-22T13:48:31.000Z,97627
2023-04-22T13:49:58.000Z,97627
2023-04-22T13:52:04.000Z,97625
2023-04-22T13:53:31.000Z,97619
2023-04-22T13:55:40.000Z,97619
2023-04-22T13:58:31.000Z,97617
2023-04-22T13:59:58.000Z,97617
2023-04-22T14:02:04.000Z,97617
2023-04-22T14:03:30.000Z,97614
2023-04-22T14:05:37.000Z,97613
2023-04-22T14:07:04.000Z,97613
2023-04-22T14:09:10.000Z,97610
2023-04-22T14:10:36.000Z,97609
2023-04-22T14:12:43.000Z,97608
2023-04-22T14:14:09.000Z,97606
2023-04-22T14:16:15.000Z,97609
2023-04-22T14:17:42.000Z,97603
2023-04-22T14:19:48.000Z,97598
2023-04-22T14:21:15.000Z,97598
2023-04-22T14:23:21.000Z,97602
2023-04-22T14:24:47.000Z,97595
2023-04-22T14:26:54.000Z,97594
2023-04-22T14:28:20.000Z,97602
2023-04-22T14:30:26.000Z,97595
2023-04-22T14:31:53.000Z,97597
2023-04-22T14:33:59.000Z,97594
2023-04-22T14:36:50.000Z,97594
2023-04-22T14:38:17.000Z,97599
2023-04-22T14:40:23.000Z,97595
2023-04-22T14:41:49.000Z,97594
2023-04-22T14:43:56.000Z,97598
2023-04-22T14:45:22.000Z,97597
2023-04-22T14:47:28.000Z,97601
2023-04-22T14:48:55.000Z,97597
2023-04-22T14:51:01.000Z,97597
2023-04-22T14:52:27.000Z,97600
2023-04-22T14:54:34.000Z,97599
2023-04-22T14:56:00.000Z,97597
2023-04-22T14:58:06.000Z,97596
2023-04-22T14:59:33.000Z,97597
2023-04-22T15:01:39.000Z,97594
2023-04-22T15:03:06.000Z,97596
2023-04-22T15:05:12.000Z,97595
2023-04-22T15:06:38.000Z,97598
2023-04-22T15:08:45.000Z,97598
2023-04-22T15:10:11.000Z,97593
2023-04-22T15:12:18.000Z,97599
2023-04-22T15:15:09.000Z,97606
2023-04-22T15:16:35.000Z,97605
2023-04-22T15:18:41.000Z,97607
2023-04-22T15:20:08.000Z,97611
2023-04-22T15:22:15.000Z,97613
2023-04-22T15:23:41.000Z,97615
2023-04-22T15:25:48.000Z,97621
2023-04-22T15:27:14.000Z,97622
2023-04-22T15:29:20.000Z,97625
2023-04-22T15:30:47.000Z,97623
2023-04-22T15:32:53.000Z,97622
2023-04-22T15:34:19.000Z,97630
2023-04-22T15:36:26.000Z,97634
2023-04-22T15:37:52.000Z,97631
2023-04-22T15:39:58.000Z,97628
2023-04-22T15:41:25.000Z,97632
2023-04-22T15:43:31.000Z,97635
2023-04-22T15:44:57.000Z,97633
2023-04-22T15:47:03.000Z,97636
2023-04-22T15:48:30.000Z,97638
2023-04-22T15:50:36.000Z,97636
2023-04-22T15:53:31.000Z,97636
2023-04-22T15:54:57.000Z,97641
2023-04-22T15:57:03.000Z,97645
2023-04-22T15:58:30.000Z,97640
2023-04-22T16:00:40.000Z,97645
2023-04-22T16:02:06.000Z,97653
2023-04-22T16:04:13.000Z,97651
2023-04-22T16:05:40.000Z,97649
2023-04-22T16:07:46.000Z,97652
2023-04-22T16:09:12.000Z,97649
2023-04-22T16:11:19.000Z,97647
2023-04-22T16:12:45.000Z,97646
2023-04-22T16:14:51.000Z,97649
2023-04-22T16:16:18.000Z,97653
2023-04-22T16:18:24.000Z,97652
2023-04-22T16:19:50.000Z,97658
2023-04-22T16:21:57.000Z,97660
2023-04-22T16:23:23.000Z,97670
2023-04-22T16:25:29.000Z,97657
2023-04-22T16:26:56.000Z,97657
2023-04-22T16:29:02.000Z,97652
2023-04-22T16:31:53.000Z,97649
2023-04-22T16:33:20.000Z,97649
2023-04-22T16:35:26.000Z,97645
2023-04-22T16:36:52.000Z,97645
2023-04-22T16:38:58.000Z,97644
2023-04-22T16:40:25.000Z,97641
2023-04-22T16:42:31.000Z,97637
2023-04-22T16:43:58.000Z,97631
2023-04-22T16:46:04.000Z,97630
2023-04-22T16:47:30.000Z,97626
2023-04-22T16:49:37.000Z,97623
2023-04-22T16:51:03.000Z,97622
2023-04-22T16:53:09.000Z,97620
2023-04-22T16:54:36.000Z,97618
2023-04-22T16:56:42.000Z,97618
2023-04-22T16:58:09.000Z,97616
2023-04-22T17:00:15.000Z,97615
2023-04-22T17:01:42.000Z,97614
2023-04-22T17:03:48.000Z,97618
2023-04-22T17:05:15.000Z,97616
2023-04-22T17:07:21.000Z,97615
2023-04-22T17:10:12.000Z,97615
2023-04-22T17:11:39.000Z,97614
2023-04-22T17:13:45.000Z,97616
2023-04-22T17:15:11.000Z,97606
2023-04-22T17:17:18.000Z,97610
2023-04-22T17:18:44.000Z,97612
2023-04-22T17:20:50.000Z,97605
2023-04-22T17:22:17.000Z,97609
2023-04-22T17:24:23.000Z,97608
2023-04-22T17:25:49.000Z,97614
2023-04-22T17:27:55.000Z,97610
2023-04-22T17:29:22.000Z,97617
2023-04-22T17:31:28.000Z,97618
2023-04-22T17:32:55.000Z,97621
2023-04-22T17:35:01.000Z,97617
2023-04-22T17:36:28.000Z,97616
2023-04-22T17:38:34.000Z,97618
2023-04-22T17:40:00.000Z,97617
2023-04-22T17:42:06.000Z,97612
2023-04-22T17:43:33.000Z,97612
2023-04-22T17:45:39.000Z,97612
2023-04-22T17:48:30.000Z,97611
2023-04-22T17:49:57.000Z,97609
2023-04-22T17:52:03.000Z,97615
2023-04-22T17:53:29.000Z,97613
2023-04-22T17:55:35.000Z,97612
2023-04-22T17:57:02.000Z,97615
2023-04-22T17:59:08.000Z,97613
2023-04-22T18:00:34.000Z,97618
2023-04-22T18:02:41.000Z,97616
2023-04-22T18:04:07.000Z,97618
2023-04-22T18:06:14.000Z,97616
2023-04-22T18:07:40.000Z,97617
2023-04-22T18:09:47.000Z,97622
2023-04-22T18:11:13.000Z,97619
2023-04-22T18:13:19.000Z,97624
2023-04-22T18:14:46.000Z,97626
2023-04-22T18:16:52.000Z,97628
2023-04-22T18:18:19.000Z,97629
2023-04-22T18:20:25.000Z,97636
2023-04-22T18:21:51.000Z,97630
2023-04-22T18:24:06.000Z,97637
2023-04-22T18:26:57.000Z,97637
2023-04-22T18:28:24.000Z,97640
2023-04-22T18:30:30.000Z,97639
2023-04-22T18:31:58.000Z,97641
2023-04-22T18:34:05.000Z,97645
2023-04-22T18:35:31.000Z,97644
2023-04-22T18:37:37.000Z,97649
2023-04-22T18:39:04.000Z,97652
2023-04-22T18:41:10.000Z,97652
2023-04-22T18:42:36.000Z,97649
2023-04-22T18:44:42.000Z,97649
2023-04-22T18:46:09.000Z,97654
2023-04-22T18:48:16.000Z,97653
2023-04-22T18:49:42.000Z,97657
2023-04-22T18:51:48.000Z,97662
2023-04-22T18:53:15.000Z,97665
2023-04-22T18:55:21.000Z,97668
2023-04-22T18:56:47.000Z,97671
2023-04-22T18:58:54.000Z,97671
2023-04-22T19:00:21.000Z,97676
2023-04-22T19:02:27.000Z,97673
2023-04-22T19:05:19.000Z,97676
2023-04-22T19:06:45.000Z,97679
2023-04-22T19:08:51.000Z,97680
2023-04-22T19:10:18.000Z,97683
2023-04-22T19:12:24.000Z,97683
2023-04-22T19:13:50.000Z,97685
2023-04-22T19:15:59.000Z,97681
2023-04-22T19:17:26.000Z,97687
2023-04-22T19:19:32.000Z,97684
2023-04-22T19:20:58.000Z,97682
2023-04-22T19:23:04.000Z,97684
2023-04-22T19:24:31.000Z,97681
2023-04-22T19:26:37.000Z,97687
2023-04-22T19:28:03.000Z,97683
2023-04-22T19:30:10.000Z,97688
2023-04-22T19:31:36.000Z,97687
2023-04-22T19:33:42.000Z,97689
2023-04-22T19:35:09.000Z,97691
2023-04-22T19:37:15.000Z,97695
2023-04-22T19:38:41.000Z,97692
2023-04-22T19:40:48.000Z,97691
2023-04-22T19:43:38.000Z,97696
2023-04-22T19:45:05.000Z,97692
2023-04-22T19:47:11.000Z,97694
2023-04-22T19:48:38.000Z,97690
2023-04-22T19:50:44.000Z,97690
2023-04-22T19:52:10.000Z,97694
2023-04-22T19:54:16.000Z,97690
2023-04-22T19:55:43.000Z,97687
2023-04-22T19:57:49.000Z,97689
2023-04-22T19:59:15.000Z,97690
2023-04-22T20:01:21.000Z,97686
2023-04-22T20:02:48.000Z,97688
2023-04-22T20:04:54.000Z,97689
2023-04-22T20:06:21.000Z,97681
2023-04-22T20:08:27.000Z,97680
2023-04-22T20:09:53.000Z,97684
2023-04-22T20:11:59.000Z,97685
2023-04-22T20:13:26.000Z,97678
2023-04-22T20:15:32.000Z,97680
2023-04-22T20:16:59.000Z,97678
2023-04-22T20:19:05.000Z,97676
2023-04-22T20:21:56.000Z,97676
2023-04-22T20:23:23.000Z,97675
2023-04-22T20:25:29.000Z,97674
2023-04-22T20:26:55.000Z,97674
2023-04-22T20:29:01.000Z,97675
2023-04-22T20:30:28.000Z,97676
2023-04-22T20:32:34.000Z,97675
2023-04-22T20:34:00.000Z,97670
2023-04-22T20:36:06.000Z,97671
2023-04-22T20:37:33.000Z,97673
2023-04-22T20:39:39.000Z,97671
2023-04-22T20:41:06.000Z,97672
2023-04-22T20:43:12.000Z,97673
2023-04-22T20:44:38.000Z,97676
2023-04-22T20:46:44.000Z,97672
2023-04-22T20:48:11.000Z,97672
2023-04-22T20:50:17.000Z,97672
2023-04-22T20:51:44.000Z,97673
2023-04-22T20:53:50.000Z,97678
2023-04-22T20:55:16.000Z,97679
2023-04-22T20:57:23.000Z,97676
2023-04-22T21:00:14.000Z,97672
2023-04-22T21:02:04.000Z,97668
2023-04-22T21:04:11.000Z,97665
2023-04-22T21:05:37.000Z,97660
2023-04-22T21:07:44.000Z,97660
2023-04-22T21:09:10.000Z,97663
2023-04-22T21:11:16.000Z,97659
2023-04-22T21:12:43.000Z,97655
2023-04-22T21:14:49.000Z,97656
2023-04-22T21:16:15.000Z,97660
2023-04-22T21:18:22.000Z,97657
2023-04-22T21:19:48.000Z,97664
2023-04-22T21:21:54.000Z,97659
2023-04-22T21:23:21.000Z,97666
2023-04-22T21:25:27.000Z,97666
2023-04-22T21:26:53.000Z,97670
2023-04-22T21:29:00.000Z,97670
2023-04-22T21:30:26.000Z,97674
2023-04-22T21:32:32.000Z,97672
2023-04-22T21:36:33.000Z,97678
2023-04-22T21:39:24.000Z,97676
2023-04-22T21:40:51.000Z,97678
2023-04-22T21:42:57.000Z,97678
2023-04-22T21:44:23.000Z,97677
2023-04-22T21:46:29.000Z,97678
2023-04-22T21:47:56.000Z,97675
2023-04-22T21:50:02.000Z,97681
2023-04-22T21:51:28.000Z,97686
2023-04-22T21:53:34.000Z,97687
2023-04-22T21:55:01.000Z,97687
2023-04-22T21:57:07.000Z,97692
2023-04-22T21:58:34.000Z,97688
2023-04-22T22:00:40.000Z,97694
2023-04-22T22:02:06.000Z,97696
2023-04-22T22:04:12.000Z,97700
2023-04-22T22:05:42.000Z,97700
2023-04-22T22:07:48.000Z,97705
2023-04-22T22:09:15.000Z,97706
2023-04-22T22:11:21.000Z,97700
2023-04-22T22:12:57.000Z,97704
2023-04-22T22:15:03.000Z,97703
2023-04-22T22:17:55.000Z,97702
2023-04-22T22:19:21.000Z,97696
2023-04-22T22:21:27.000Z,97699
2023-04-22T22:22:54.000Z,97701
2023-04-22T22:25:00.000Z,97702
2023-04-22T22:26:26.000Z,97701
2023-04-22T22:28:32.000Z,97706
2023-04-22T22:29:59.000Z,97706
2023-04-22T22:32:05.000Z,97705
2023-04-22T22:33:32.000Z,97703
2023-04-22T22:35:38.000Z,97708
2023-04-22T22:37:04.000Z,97707
2023-04-22T22:39:10.000Z,97710
2023-04-22T22:40:37.000Z,97711
2023-04-22T22:42:43.000Z,97713
2023-04-22T22:44:10.000Z,97713
2023-04-22T22:46:16.000Z,97710
2023-04-22T22:47:42.000Z,97714
2023-04-22T22:49:48.000Z,97710
2023-04-22T22:51:15.000Z,97710
2023-04-22T22:53:24.000Z,97708
2023-04-22T22:56:16.000Z,97707
2023-04-22T22:57:42.000Z,97705
2023-04-22T22:59:48.000Z,97703
2023-04-22T23:01:15.000Z,97705
2023-04-22T23:03:21.000Z,97711
2023-04-22T23:04:48.000Z,97706
2023-04-22T23:06:54.000Z,97703
2023-04-22T23:08:21.000Z,97699
2023-04-22T23:10:27.000Z,97700
2023-04-22T23:11:53.000Z,97699
2023-04-22T23:13:59.000Z,97698
2023-04-22T23:15:26.000Z,97700
2023-04-22T23:17:32.000Z,97702
2023-04-22T23:18:59.000Z,97697
2023-04-22T23:21:05.000Z,97696
2023-04-22T23:22:31.000Z,97695
2023-04-22T23:24:37.000Z,97690
2023-04-22T23:26:04.000Z,97688
2023-04-22T23:28:10.000Z,97690
2023-04-22T23:29:37.000Z,97688
2023-04-22T23:31:43.000Z,97684